createdAt,value
2023-04-17T00:03:25.383Z,102596.47
2023-04-17T00:08:29.636Z,102597.34
2023-04-17T00:13:33.507Z,102593.00
2023-04-17T00:18:47.501Z,102596.44
2023-04-17T00:23:51.616Z,102601.66
2023-04-17T00:28:54.438Z,102601.66
2023-04-17T00:33:58.838Z,102595.59
2023-04-17T00:39:04.300Z,102604.31
2023-04-17T00:44:23.471Z,102591.22
2023-04-17T00:49:26.845Z,102599.91
2023-04-17T00:54:37.542Z,102590.38
2023-04-17T00:59:40.727Z,102590.38
2023-04-17T01:04:44.557Z,102598.22
2023-04-17T01:10:04.039Z,102594.72
2023-04-17T01:15:08.163Z,102602.56
2023-04-17T01:20:12.047Z,102591.25
2023-04-17T01:25:16.324Z,102592.09
2023-04-17T01:30:27.553Z,102591.22
2023-04-17T01:35:36.331Z,102592.09
2023-04-17T01:40:41.155Z,102594.72
2023-04-17T01:45:44.017Z,102591.25
2023-04-17T01:50:47.614Z,102584.31
2023-04-17T01:55:54.488Z,102590.38
2023-04-17T02:01:14.723Z,102605.19
2023-04-17T02:06:19.793Z,102601.72
2023-04-17T02:11:26.445Z,102593.88
2023-04-17T02:16:31.804Z,102600.81
2023-04-17T02:21:34.730Z,102603.41
2023-04-17T02:26:52.642Z,102599.97
2023-04-17T02:31:55.732Z,102595.63
2023-04-17T02:37:21.114Z,102602.63
2023-04-17T02:42:26.078Z,102600.00
2023-04-17T02:47:29.309Z,102613.06
2023-04-17T02:52:34.054Z,102593.88
2023-04-17T02:57:39.249Z,102606.09
2023-04-17T03:02:42.927Z,102608.72
2023-04-17T03:07:46.029Z,102613.94
2023-04-17T03:12:52.367Z,102613.88
2023-04-17T03:18:02.958Z,102617.41
2023-04-17T03:23:05.768Z,102620.91
2023-04-17T03:28:10.259Z,102623.47
2023-04-17T03:33:13.111Z,102626.13
2023-04-17T03:38:18.590Z,102620.06
2023-04-17T03:44:04.674Z,102628.75
2023-04-17T03:49:07.674Z,102631.38
2023-04-17T03:54:11.888Z,102629.63
2023-04-17T03:59:17.411Z,102636.59
2023-04-17T04:04:21.724Z,102643.56
2023-04-17T04:09:34.186Z,102646.16
2023-04-17T04:14:41.754Z,102643.53
2023-04-17T04:19:46.453Z,102644.34
2023-04-17T04:24:53.638Z,102648.69
2023-04-17T04:30:04.155Z,102653.94
2023-04-17T04:35:12.794Z,102665.25
2023-04-17T04:40:15.805Z,102655.69
2023-04-17T04:45:20.592Z,102655.66
2023-04-17T04:50:23.689Z,102651.31
2023-04-17T04:55:26.668Z,102663.50
2023-04-17T05:00:33.589Z,102666.09
2023-04-17T05:05:37.817Z,102671.34
2023-04-17T05:10:42.276Z,102660.84
2023-04-17T05:15:46.634Z,102672.19
2023-04-17T05:20:51.281Z,102680.91
2023-04-17T05:26:05.866Z,102686.19
2023-04-17T05:31:10.242Z,102687.94
2023-04-17T05:36:17.206Z,102691.41
2023-04-17T05:41:21.496Z,102693.16
2023-04-17T05:46:26.007Z,102693.97
2023-04-17T05:51:41.366Z,102694.03
2023-04-17T05:56:44.933Z,102696.69
2023-04-17T06:01:49.490Z,102704.53
2023-04-17T06:06:56.574Z,102703.72
2023-04-17T06:11:59.471Z,102715.06
2023-04-17T06:17:18.585Z,102723.78
2023-04-17T06:22:21.702Z,102733.16
2023-04-17T06:27:24.567Z,102743.66
2023-04-17T06:32:29.143Z,102741.09
2023-04-17T06:37:32.798Z,102744.69
2023-04-17T06:42:53.310Z,102738.59
2023-04-17T06:47:59.392Z,102749.13
2023-04-17T06:53:02.369Z,102744.81
2023-04-17T06:58:05.411Z,102755.31
2023-04-17T07:03:10.000Z,102754.16
2023-04-17T07:08:30.872Z,102765.47
2023-04-17T07:13:33.684Z,102762.84
2023-04-17T07:18:37.963Z,102773.53
2023-04-17T07:23:40.904Z,102775.38
2023-04-17T07:28:43.832Z,102770.22
2023-04-17T07:34:08.373Z,102776.44
2023-04-17T07:39:11.628Z,102780.56
2023-04-17T07:44:14.758Z,102781.75
2023-04-17T07:49:19.004Z,102773.81
2023-04-17T07:54:21.875Z,102774.72
2023-04-17T07:59:42.848Z,102776.56
2023-04-17T08:04:47.384Z,102793.19
2023-04-17T08:09:51.065Z,102794.94
2023-04-17T08:14:53.958Z,102795.75
2023-04-17T08:19:58.572Z,102798.44
2023-04-17T08:25:18.776Z,102795.00
2023-04-17T08:30:21.705Z,102789.69
2023-04-17T08:35:26.718Z,102794.75
2023-04-17T08:40:29.630Z,102795.63
2023-04-17T08:45:33.766Z,102803.47
2023-04-17T08:50:57.381Z,102803.66
2023-04-17T08:56:06.879Z,102810.63
2023-04-17T09:01:15.747Z,102812.50
2023-04-17T09:06:19.993Z,102820.22
2023-04-17T09:11:22.975Z,102826.56
2023-04-17T09:16:32.101Z,102830.06
2023-04-17T09:21:36.384Z,102823.13
2023-04-17T09:26:39.388Z,102832.72
2023-04-17T09:31:45.191Z,102839.69
2023-04-17T09:36:55.272Z,102838.81
2023-04-17T09:42:10.462Z,102841.38
2023-04-17T09:47:14.113Z,102837.75
2023-04-17T09:52:18.684Z,102845.69
2023-04-17T09:57:21.659Z,102848.25
2023-04-17T10:02:24.735Z,102837.59
2023-04-17T10:07:46.520Z,102835.75
2023-04-17T10:12:50.362Z,102833.06
2023-04-17T10:17:56.236Z,102826.88
2023-04-17T10:23:01.350Z,102820.56
2023-04-17T10:28:04.243Z,102831.03
2023-04-17T10:33:26.567Z,102835.28
2023-04-17T10:38:39.994Z,102832.56
2023-04-17T10:43:45.540Z,102823.63
2023-04-17T10:48:52.074Z,102825.56
2023-04-17T10:53:58.084Z,102821.59
2023-04-17T10:59:02.266Z,102818.44
2023-04-17T11:04:05.407Z,102809.47
2023-04-17T11:09:11.288Z,102813.78
2023-04-17T11:14:16.488Z,102803.72
2023-04-17T11:19:20.107Z,102793.91
2023-04-17T11:24:35.545Z,102799.06
2023-04-17T11:29:38.388Z,102797.63
2023-04-17T11:34:42.513Z,102804.03
2023-04-17T11:39:46.887Z,102799.41
2023-04-17T11:44:49.821Z,102806.44
2023-04-17T11:50:10.332Z,102788.94
2023-04-17T11:55:16.126Z,102801.25
2023-04-17T12:00:26.083Z,102807.16
2023-04-17T12:05:30.139Z,102799.75
2023-04-17T12:10:39.534Z,102816.25
2023-04-17T12:15:47.241Z,102818.69
2023-04-17T12:20:50.401Z,102802.56
2023-04-17T12:25:54.755Z,102799.91
2023-04-17T12:30:57.759Z,102794.47
2023-04-17T12:36:01.877Z,102794.16
2023-04-17T12:41:25.453Z,102803.47
2023-04-17T12:46:28.397Z,102809.84
2023-04-17T12:51:37.393Z,102820.53
2023-04-17T12:56:41.670Z,102814.25
2023-04-17T13:01:44.705Z,102804.13
2023-04-17T13:06:58.387Z,102806.66
2023-04-17T13:12:05.338Z,102804.28
2023-04-17T13:17:08.765Z,102803.09
2023-04-17T13:22:12.300Z,102805.50
2023-04-17T13:27:16.872Z,102798.13
2023-04-17T13:32:35.396Z,102789.03
2023-04-17T13:37:38.355Z,102793.50
2023-04-17T13:42:44.670Z,102776.09
2023-04-17T13:47:47.677Z,102780.63
2023-04-17T13:52:51.060Z,102772.59
2023-04-17T13:58:13.051Z,102766.16
2023-04-17T14:03:16.189Z,102767.53
2023-04-17T14:08:42.902Z,102769.38
2023-04-17T14:13:48.488Z,102760.50
2023-04-17T14:18:52.193Z,102752.47
2023-04-17T14:23:56.829Z,102741.97
2023-04-17T14:29:01.013Z,102750.69
2023-04-17T14:34:03.932Z,102738.28
2023-04-17T14:39:07.140Z,102738.44
2023-04-17T14:44:11.473Z,102738.44
2023-04-17T14:49:25.173Z,102738.00
2023-04-17T14:54:28.025Z,102737.22
2023-04-17T14:59:32.220Z,102730.88
2023-04-17T15:04:35.068Z,102731.38
2023-04-17T15:09:37.963Z,102727.47
2023-04-17T15:15:02.192Z,102732.44
2023-04-17T15:20:05.534Z,102717.72
2023-04-17T15:25:08.990Z,102722.03
2023-04-17T15:30:14.644Z,102722.41
2023-04-17T15:35:17.583Z,102716.81
2023-04-17T15:40:37.493Z,102715.94
2023-04-17T15:45:41.967Z,102709.75
2023-04-17T15:50:44.936Z,102718.28
2023-04-17T15:55:47.824Z,102707.31
2023-04-17T16:00:52.189Z,102711.00
2023-04-17T16:06:14.431Z,102713.88
2023-04-17T16:11:17.244Z,102717.56
2023-04-17T16:16:21.502Z,102714.22
2023-04-17T16:21:24.443Z,102710.84
2023-04-17T16:26:27.434Z,102714.59
2023-04-17T16:31:52.115Z,102706.94
2023-04-17T16:36:54.973Z,102706.16
2023-04-17T16:41:57.833Z,102707.16
2023-04-17T16:52:08.009Z,102707.19
2023-04-17T16:57:25.671Z,102709.19
2023-04-17T17:02:29.994Z,102709.56
2023-04-17T17:07:33.046Z,102718.38
2023-04-17T17:12:35.906Z,102716.06
2023-04-17T17:17:40.312Z,102716.47
2023-04-17T17:23:02.103Z,102721.28
2023-04-17T17:28:05.071Z,102729.50
2023-04-17T17:33:11.944Z,102728.13
2023-04-17T17:38:15.063Z,102727.44
2023-04-17T17:43:17.941Z,102733.81
2023-04-17T17:48:40.590Z,102744.56
2023-04-17T17:53:43.383Z,102745.72
2023-04-17T17:58:46.259Z,102749.44
2023-04-17T18:03:50.737Z,102753.25
2023-04-17T18:08:53.990Z,102756.13
2023-04-17T18:14:15.263Z,102772.91
2023-04-17T18:19:19.525Z,102761.66
2023-04-17T18:24:22.524Z,102775.75
2023-04-17T18:29:25.517Z,102781.94
2023-04-17T18:34:31.798Z,102788.97
2023-04-17T18:39:53.410Z,102783.72
2023-04-17T18:44:56.206Z,102795.13
2023-04-17T18:50:08.200Z,102802.13
2023-04-17T18:55:11.205Z,102798.63
2023-04-17T19:00:16.868Z,102804.72
2023-04-17T19:05:29.708Z,102808.19
2023-04-17T19:10:32.596Z,102806.41
2023-04-17T19:15:41.119Z,102805.50
2023-04-17T19:20:45.306Z,102817.72
2023-04-17T19:25:53.560Z,102819.41
2023-04-17T19:31:04.439Z,102820.28
2023-04-17T19:36:08.625Z,102818.50
2023-04-17T19:41:17.259Z,102818.47
2023-04-17T19:46:21.223Z,102815.81
2023-04-17T19:51:31.371Z,102812.31
2023-04-17T19:56:41.135Z,102820.09
2023-04-17T20:01:44.559Z,102813.94
2023-04-17T20:06:48.998Z,102822.63
2023-04-17T20:11:51.818Z,102821.69
2023-04-17T20:16:56.765Z,102829.53
2023-04-17T20:22:21.243Z,102831.25
2023-04-17T20:27:24.022Z,102833.78
2023-04-17T20:32:29.033Z,102833.75
2023-04-17T20:37:33.257Z,102828.44
2023-04-17T20:42:37.164Z,102830.16
2023-04-17T20:47:56.891Z,102830.09
2023-04-17T20:53:01.434Z,102823.09
2023-04-17T20:58:04.186Z,102824.81
2023-04-17T21:03:31.847Z,102822.16
2023-04-17T21:08:36.214Z,102825.56
2023-04-17T21:13:39.065Z,102823.78
2023-04-17T21:18:41.864Z,102815.91
2023-04-17T21:23:46.105Z,102814.13
2023-04-17T21:28:48.860Z,102814.91
2023-04-17T21:33:51.672Z,102819.22
2023-04-17T21:39:08.024Z,102813.94
2023-04-17T21:44:11.592Z,102820.00
2023-04-17T21:49:14.591Z,102816.53
2023-04-17T21:54:18.753Z,102814.75
2023-04-17T21:59:21.572Z,102810.41
2023-04-17T22:04:43.943Z,102810.38
2023-04-17T22:09:48.211Z,102812.09
2023-04-17T22:14:51.099Z,102810.28
2023-04-17T22:20:30.519Z,102816.34
2023-04-17T22:25:53.542Z,102814.69
2023-04-17T22:31:51.669Z,102803.28
2023-04-17T22:38:08.194Z,102814.59
2023-04-17T22:43:29.790Z,102811.09
2023-04-17T22:48:51.418Z,102813.72
2023-04-17T22:54:50.087Z,102817.22
2023-04-17T23:00:31.184Z,102820.69
2023-04-17T23:05:52.615Z,102819.81
2023-04-17T23:11:13.668Z,102820.78
2023-04-17T23:16:18.020Z,102827.75
2023-04-17T23:21:32.045Z,102838.22
2023-04-17T23:26:34.896Z,102833.91
2023-04-17T23:31:39.218Z,102831.25
2023-04-17T23:36:42.079Z,102832.94
2023-04-17T23:41:45.612Z,102832.84
2023-04-17T23:47:10.459Z,102833.59
2023-04-17T23:52:13.249Z,102831.47
2023-04-17T23:57:16.269Z,102835.00
